BADAN METEOROLOGI KLIMATOLOGI
DAN GEOFISIKA
Stasiun Meterologi Klas I
Frans Kaisiepo Biak
MET/SPECIAL REPORT


MET REPORT WABB 261530Z WIND 310/4KT VRB BTN 130/ AND 310/ VIS 10KM CLD SCT 1800FT T26 DP24 QNH 1006HPA QFE 1005HPA TREND NOSIG=

MET REPORT WABB 261600Z WIND 320/4KT VRB BTN 140/ AND 320/ VIS 10KM CLD SCT 1800FT T26 DP24 QNH 1006HPA QFE 1004HPA TREND NOSIG=

MET REPORT WABB 261630Z WIND 300/3KT VRB BTN 130/ AND 300/ VIS 10KM CLD SCT 1800FT T25 DP24 QNH 1006HPA QFE 1004HPA TREND NOSIG=

SPECIAL REPORT WABB 261643Z WIND 280/12KT VRB BTN 090/ AND 280/ VIS 7KM FBL RA CLD SCT 1800FT T26 DP25 QNH 1006HPA QFE 1004HPA TREND NOSIG=

MET REPORT WABB 261700Z WIND 270/9KT VRB BTN 090/ AND 270/ VIS 4000M FBL RA CLD BKN 1800FT T25 DP24 QNH 1006HPA QFE 1004HPA TREND NOSIG=

METAR/SPECI


METAR WABB 261530Z 31004KT 130V310 9999 SCT018 26/24 Q1006 NOSIG=

METAR WABB 261600Z 32004KT 140V320 9999 SCT018 26/24 Q1006 NOSIG=

METAR WABB 261630Z 30003KT 130V300 9999 SCT018 25/24 Q1006 NOSIG=

SPECI WABB 261643Z 28012KT 090V280 7000 -RA SCT018 26/25 Q1006 NOSIG=

METAR WABB 261700Z 27009KT 090V270 4000 -RA BKN018 25/24 Q1006 NOSIG=

TAFOR


TAF WABB 261700Z 2618/2718 31004KT 9999 SCT018
TEMPO 2618/2620 5000 RA BKN018
BECMG 2622/2624 24008KT=

TAF WABO 261700Z 2618/2718 00000KT 5000 SCT013
TEMPO 2618/2620 RA BKN012
BECMG 2622/2624 10008KT 9999=

TAF WABI 261700Z 2618/2718 16004KT 5000 SCT015
TEMPO 2618/2620 RA FEW014CB
BECMG 2622/2624 31008KT 9999=

TAF WAYE 261700Z 2618/2718 00000KT 3000 RA BKN007
BECMG 2620/2622 20007KT 9000 NSW SCT008=

TAF WAYY 261700Z 2618/2718 30004KT 4000 RA BKN012
BECMG 2621/2623 24007KT 9999 NSW SCT015=


Stasiun Meteorologi Klas I Frans Kaisiepo Biak
Jl.Moh Yamin
Telp. (0981)25373-22824
PO.Box 132 - Biak 98101
Email : stamet.biak@bmkg.go.id

Layanan 1 x 24 jam
Telp. (0981)21742 (Forecaster Onduty)
WhatsApp (+628114822994)
Email : forecaster.biak@gmail.com

Design by : Eko | Herald
Stasiun Meteorologi Klas I Frans Kaisiepo Biak